createdAt,value
2019-01-05T00:02:18.072Z,0.10
2019-01-05T00:05:06.419Z,0.10
2019-01-05T00:08:04.077Z,0.10
2019-01-05T00:11:01.591Z,0.20
2019-01-05T00:13:48.534Z,0.20
2019-01-05T00:16:44.497Z,0.20
2019-01-05T00:19:32.260Z,0.20
2019-01-05T00:22:29.873Z,0.20
2019-01-05T00:25:30.554Z,0.20
2019-01-05T00:28:25.308Z,0.20
2019-01-05T00:31:14.114Z,0.20
2019-01-05T00:34:13.711Z,0.20
2019-01-05T00:37:08.919Z,0.20
2019-01-05T00:39:59.884Z,0.30
2019-01-05T00:42:58.002Z,0.20
2019-01-05T00:45:48.010Z,0.20
2019-01-05T00:48:50.126Z,0.30
2019-01-05T00:51:40.180Z,0.30
2019-01-05T00:54:49.537Z,0.30
2019-01-05T00:57:32.722Z,0.30
2019-01-05T01:00:21.989Z,0.20
2019-01-05T01:03:09.865Z,0.20
2019-01-05T01:05:51.804Z,0.30
2019-01-05T01:08:43.178Z,0.30
2019-01-05T01:11:31.659Z,0.30
2019-01-05T01:14:20.384Z,0.30
2019-01-05T01:17:24.482Z,0.30
2019-01-05T01:20:21.903Z,0.30
2019-01-05T01:23:09.758Z,0.30
2019-01-05T01:25:56.802Z,0.30
2019-01-05T01:28:48.859Z,0.40
2019-01-05T01:31:30.550Z,0.40
2019-01-05T01:34:17.622Z,0.30
2019-01-05T01:37:05.104Z,0.30
2019-01-05T01:39:50.917Z,0.30
2019-01-05T01:42:52.457Z,0.30
2019-01-05T01:45:48.672Z,0.30
2019-01-05T01:48:39.146Z,0.30
2019-01-05T01:51:28.236Z,0.30
2019-01-05T01:54:15.851Z,0.20
2019-01-05T01:56:58.786Z,0.20
2019-01-05T02:00:24.057Z,0.20
2019-01-05T02:03:14.223Z,0.20
2019-01-05T02:06:05.429Z,0.20
2019-01-05T02:08:48.433Z,0.30
2019-01-05T02:11:43.656Z,0.20
2019-01-05T02:14:30.320Z,0.20
2019-01-05T02:17:23.276Z,0.30
2019-01-05T02:20:39.579Z,0.30
2019-01-05T02:24:22.976Z,0.30
2019-01-05T02:27:44.989Z,0.20
2019-01-05T02:31:00.952Z,0.30
2019-01-05T02:34:11.956Z,0.30
2019-01-05T02:38:04.220Z,0.30
2019-01-05T02:41:18.097Z,0.30
2019-01-05T02:44:24.933Z,0.30
2019-01-05T02:48:02.488Z,0.30
2019-01-05T02:51:43.015Z,0.30
2019-01-05T02:55:14.819Z,0.30
2019-01-05T02:58:58.920Z,0.40
2019-01-05T03:02:45.323Z,0.40
2019-01-05T03:06:23.881Z,0.40
2019-01-05T03:09:43.679Z,0.40
2019-01-05T03:12:58.532Z,0.40
2019-01-05T03:16:28.902Z,0.40
2019-01-05T03:20:08.245Z,0.40
2019-01-05T03:23:31.729Z,0.40
2019-01-05T03:27:00.048Z,0.40
2019-01-05T03:30:32.830Z,0.40
2019-01-05T03:34:10.902Z,0.40
2019-01-05T03:37:34.528Z,0.40
2019-01-05T03:40:55.162Z,0.40
2019-01-05T03:44:20.560Z,0.40
2019-01-05T03:47:45.117Z,0.40
2019-01-05T03:51:34.707Z,0.50
2019-01-05T03:54:53.864Z,0.40
2019-01-05T03:58:13.217Z,0.40
2019-01-05T04:01:44.245Z,0.40
2019-01-05T04:05:07.380Z,0.50
2019-01-05T04:08:31.390Z,0.40
2019-01-05T04:11:43.946Z,0.40
2019-01-05T04:15:02.558Z,0.40
2019-01-05T04:18:50.258Z,0.40
2019-01-05T04:22:22.316Z,0.30
2019-01-05T04:26:05.171Z,0.30
2019-01-05T04:29:37.865Z,0.30
2019-01-05T04:33:05.977Z,0.30
2019-01-05T04:36:35.242Z,0.30
2019-01-05T04:40:16.867Z,0.30
2019-01-05T04:43:39.337Z,0.30
2019-01-05T04:46:55.205Z,0.30
2019-01-05T04:50:31.730Z,0.20
2019-01-05T04:54:03.595Z,0.30
2019-01-05T04:57:43.789Z,0.30
2019-01-05T05:01:30.801Z,0.20
2019-01-05T05:05:14.437Z,0.20
2019-01-05T05:09:08.462Z,0.30
2019-01-05T05:12:57.555Z,0.30
2019-01-05T05:16:40.218Z,0.20
2019-01-05T05:20:38.661Z,0.20
2019-01-05T05:24:02.482Z,0.20
2019-01-05T05:27:52.591Z,0.20
2019-01-05T05:31:27.692Z,0.20
2019-01-05T05:34:54.983Z,0.30
2019-01-05T05:38:30.728Z,0.20
2019-01-05T05:42:10.548Z,0.30
2019-01-05T05:45:34.505Z,0.20
2019-01-05T05:48:52.235Z,0.20
2019-01-05T05:52:13.959Z,0.20
2019-01-05T05:56:04.287Z,0.20
2019-01-05T05:59:50.661Z,0.20
2019-01-05T06:03:31.777Z,0.20
2019-01-05T06:06:58.376Z,0.20
2019-01-05T06:10:28.149Z,0.20
2019-01-05T06:14:27.577Z,0.20
2019-01-05T06:17:52.463Z,0.20
2019-01-05T06:21:19.801Z,0.20
2019-01-05T06:24:47.855Z,0.20
2019-01-05T06:28:37.612Z,0.20
2019-01-05T06:32:16.675Z,0.20
2019-01-05T06:35:43.714Z,0.20
2019-01-05T06:39:10.309Z,0.10
2019-01-05T06:42:44.213Z,0.20
2019-01-05T06:46:14.360Z,0.20
2019-01-05T06:50:02.302Z,0.20
2019-01-05T06:53:27.458Z,0.30
2019-01-05T06:56:46.939Z,0.20
2019-01-05T07:00:33.650Z,0.20
2019-01-05T07:04:03.044Z,0.20
2019-01-05T07:07:49.266Z,0.20
2019-01-05T07:11:14.322Z,0.30
2019-01-05T07:14:54.475Z,0.30
2019-01-05T07:18:18.052Z,0.30
2019-01-05T07:21:49.233Z,0.30
2019-01-05T07:25:11.826Z,0.30
2019-01-05T07:29:01.208Z,0.30
2019-01-05T07:32:27.124Z,0.30
2019-01-05T07:35:51.936Z,0.30
2019-01-05T07:39:20.477Z,0.30
2019-01-05T07:42:55.701Z,0.30
2019-01-05T07:46:20.753Z,0.30
2019-01-05T07:50:02.870Z,0.40
2019-01-05T07:53:34.168Z,0.40
2019-01-05T07:56:57.404Z,0.40
2019-01-05T08:00:35.376Z,0.40
2019-01-05T08:04:12.676Z,0.50
2019-01-05T08:07:53.622Z,0.50
2019-01-05T08:11:23.801Z,0.50
2019-01-05T08:14:54.145Z,0.50
2019-01-05T08:18:32.272Z,0.60
2019-01-05T08:22:06.702Z,0.60
2019-01-05T08:25:22.576Z,0.60
2019-01-05T08:29:12.981Z,0.70
2019-01-05T08:32:54.211Z,0.70
2019-01-05T08:36:18.257Z,0.70
2019-01-05T08:39:51.783Z,0.70
2019-01-05T08:43:14.236Z,0.80
2019-01-05T08:46:51.353Z,0.80
2019-01-05T08:50:24.919Z,0.70
2019-01-05T08:54:33.615Z,0.70
2019-01-05T08:57:49.900Z,0.70
2019-01-05T09:01:26.257Z,0.90
2019-01-05T09:05:10.704Z,0.80
2019-01-05T09:08:28.457Z,0.90
2019-01-05T09:11:54.145Z,0.90
2019-01-05T09:15:21.340Z,0.90
2019-01-05T09:18:58.451Z,1.00
2019-01-05T09:22:38.315Z,0.90
2019-01-05T09:25:48.895Z,1.00
2019-01-05T09:29:35.378Z,1.00
2019-01-05T09:32:57.425Z,1.00
2019-01-05T09:36:27.532Z,1.00
2019-01-05T09:39:48.254Z,1.20
2019-01-05T09:43:18.237Z,1.10
2019-01-05T09:46:51.278Z,1.20
2019-01-05T09:50:29.592Z,1.30
2019-01-05T09:53:54.973Z,1.40
2019-01-05T09:57:56.204Z,1.50
2019-01-05T10:01:36.585Z,1.60
2019-01-05T10:05:13.783Z,1.50
2019-01-05T10:08:57.469Z,1.50
2019-01-05T10:12:19.433Z,1.60
2019-01-05T10:15:53.634Z,1.60
2019-01-05T10:19:30.750Z,1.50
2019-01-05T10:22:44.770Z,1.60
2019-01-05T10:26:21.141Z,1.60
2019-01-05T10:29:47.758Z,1.70
2019-01-05T10:33:12.759Z,1.70
2019-01-05T10:37:06.296Z,1.70
2019-01-05T10:40:39.164Z,1.70
2019-01-05T10:44:13.285Z,1.70
2019-01-05T10:47:53.909Z,1.70
2019-01-05T10:51:27.218Z,1.60
2019-01-05T10:54:39.617Z,1.60
2019-01-05T10:58:03.644Z,1.60
2019-01-05T11:01:16.799Z,1.70
2019-01-05T11:04:50.557Z,1.90
2019-01-05T11:08:23.229Z,2.40
2019-01-05T11:12:04.379Z,2.60
2019-01-05T11:15:46.561Z,3.00
2019-01-05T11:19:20.157Z,3.40
2019-01-05T11:22:43.058Z,3.40
2019-01-05T11:26:12.911Z,3.80
2019-01-05T11:29:35.769Z,3.40
2019-01-05T11:33:13.251Z,3.40
2019-01-05T11:36:41.167Z,3.10
2019-01-05T11:40:02.263Z,3.30
2019-01-05T11:43:38.129Z,3.80
2019-01-05T11:47:12.168Z,4.60
2019-01-05T11:51:01.669Z,5.60
2019-01-05T11:54:33.693Z,4.20
2019-01-05T11:58:37.658Z,3.90
2019-01-05T12:02:19.692Z,3.80
2019-01-05T12:05:35.897Z,3.40
2019-01-05T12:09:12.186Z,2.90
2019-01-05T12:13:05.605Z,2.40
2019-01-05T12:16:29.374Z,2.30
2019-01-05T12:19:57.636Z,2.10
2019-01-05T12:23:47.365Z,2.00
2019-01-05T12:27:29.411Z,1.90
2019-01-05T12:30:45.839Z,1.80
2019-01-05T12:34:11.770Z,1.80
2019-01-05T12:37:39.930Z,1.60
2019-01-05T12:41:11.637Z,1.60
2019-01-05T12:44:47.240Z,2.80
2019-01-05T12:48:31.522Z,3.50
2019-01-05T12:52:05.808Z,2.50
2019-01-05T12:55:38.209Z,1.90
2019-01-05T12:59:15.436Z,1.70
2019-01-05T13:02:54.584Z,1.50
2019-01-05T13:06:49.511Z,1.40
2019-01-05T13:10:50.584Z,1.30
2019-01-05T13:14:20.155Z,1.20
2019-01-05T13:17:53.882Z,1.10
2019-01-05T13:21:11.158Z,1.10
2019-01-05T13:25:08.596Z,1.10
2019-01-05T13:28:39.805Z,1.10
2019-01-05T13:32:15.087Z,1.00
2019-01-05T13:35:44.502Z,1.00
2019-01-05T13:39:13.480Z,1.00
2019-01-05T13:43:04.066Z,0.90
2019-01-05T13:46:18.027Z,0.80
2019-01-05T13:49:53.190Z,0.80
2019-01-05T13:53:07.804Z,0.80
2019-01-05T13:56:16.038Z,0.80
2019-01-05T13:59:02.981Z,0.80
2019-01-05T14:02:00.303Z,0.80
2019-01-05T14:04:47.332Z,0.80
2019-01-05T14:07:31.030Z,0.80
2019-01-05T14:10:28.923Z,0.80
2019-01-05T14:13:16.064Z,0.80
2019-01-05T14:16:13.284Z,0.80
2019-01-05T14:19:10.533Z,0.80
2019-01-05T14:22:17.134Z,0.80
2019-01-05T14:25:17.543Z,0.70
2019-01-05T14:28:21.053Z,0.70
2019-01-05T14:31:24.977Z,0.60
2019-01-05T14:34:25.901Z,0.60
2019-01-05T14:37:32.535Z,0.60
2019-01-05T14:40:21.015Z,0.60
2019-01-05T14:43:08.293Z,0.60
2019-01-05T14:46:09.110Z,0.50
2019-01-05T14:48:56.279Z,0.50
2019-01-05T14:51:47.831Z,0.50
2019-01-05T14:54:36.237Z,0.50
2019-01-05T14:57:24.617Z,0.50
2019-01-05T15:00:11.831Z,0.40
2019-01-05T15:03:00.260Z,0.40
2019-01-05T15:05:54.532Z,0.40
2019-01-05T15:08:42.162Z,0.40
2019-01-05T15:11:30.806Z,0.40
2019-01-05T15:14:25.553Z,0.40
2019-01-05T15:17:12.725Z,0.40
2019-01-05T15:20:16.561Z,0.40
2019-01-05T15:23:07.745Z,0.40
2019-01-05T15:25:59.012Z,0.40
2019-01-05T15:28:50.177Z,0.40
2019-01-05T15:31:37.516Z,0.40
2019-01-05T15:34:28.884Z,0.40
2019-01-05T15:37:16.053Z,0.40
2019-01-05T15:40:03.409Z,0.40
2019-01-05T15:42:57.665Z,0.40
2019-01-05T15:45:54.475Z,0.40
2019-01-05T15:48:45.773Z,0.40
2019-01-05T15:51:46.452Z,0.40
2019-01-05T15:54:39.532Z,0.40
2019-01-05T15:57:26.557Z,0.40
2019-01-05T16:00:13.566Z,0.40
2019-01-05T16:03:00.840Z,0.40
2019-01-05T16:05:47.949Z,0.40
2019-01-05T16:08:39.178Z,0.40
2019-01-05T16:11:30.630Z,0.40
2019-01-05T16:14:17.902Z,0.40
2019-01-05T16:17:06.459Z,0.30
2019-01-05T16:20:12.842Z,0.40
2019-01-05T16:22:59.910Z,0.40
2019-01-05T16:25:51.071Z,0.30
2019-01-05T16:28:38.071Z,0.30
2019-01-05T16:31:44.951Z,0.20
2019-01-05T16:34:31.945Z,0.30
2019-01-05T16:37:19.124Z,0.20
2019-01-05T16:40:06.139Z,0.20
2019-01-05T16:42:48.742Z,0.10
2019-01-05T16:45:26.833Z,0.10
2019-01-05T16:48:27.380Z,0.10
2019-01-05T16:51:30.939Z,0.10
2019-01-05T16:54:37.576Z,0.10
2019-01-05T16:57:31.735Z,0.10
2019-01-05T17:00:26.148Z,0.10
2019-01-05T17:03:14.564Z,0.10
2019-01-05T17:06:01.797Z,0.10
2019-01-05T17:08:49.021Z,0.10
2019-01-05T17:11:44.003Z,0.00
2019-01-05T17:14:47.709Z,0.00
2019-01-05T17:17:34.849Z,0.10
2019-01-05T17:20:39.112Z,0.10
2019-01-05T17:23:26.432Z,0.10
2019-01-05T17:26:13.570Z,0.00
2019-01-05T17:29:02.031Z,0.00
2019-01-05T17:31:56.785Z,0.00
2019-01-05T17:34:45.143Z,0.10
2019-01-05T17:37:48.650Z,0.00
2019-01-05T17:40:39.384Z,0.10
2019-01-05T17:43:30.615Z,0.00
2019-01-05T17:46:21.802Z,0.00
2019-01-05T17:49:08.810Z,0.10
2019-01-05T17:52:12.930Z,0.10
2019-01-05T17:55:07.357Z,0.00
2019-01-05T17:57:55.737Z,0.00
2019-01-05T18:00:42.736Z,0.00
2019-01-05T18:03:43.327Z,0.00
2019-01-05T18:06:30.801Z,0.10
2019-01-05T18:09:18.045Z,0.10
2019-01-05T18:12:05.004Z,0.10
2019-01-05T18:14:52.255Z,0.00
2019-01-05T18:17:40.645Z,0.00
2019-01-05T18:20:34.091Z,0.00
2019-01-05T18:23:31.139Z,0.00
2019-01-05T18:26:32.011Z,0.00
2019-01-05T18:29:18.973Z,0.00
2019-01-05T18:32:06.251Z,-0.10
2019-01-05T18:34:54.685Z,-0.10
2019-01-05T18:37:43.043Z,-0.10
2019-01-05T18:40:30.275Z,-0.10
2019-01-05T18:43:27.789Z,-0.10
2019-01-05T18:46:28.320Z,-0.10
2019-01-05T18:49:23.352Z,-0.10
2019-01-05T18:52:14.892Z,-0.10
2019-01-05T18:55:12.500Z,-0.10
2019-01-05T18:58:04.028Z,-0.10
2019-01-05T19:01:04.629Z,-0.10
2019-01-05T19:03:42.987Z,-0.10
2019-01-05T19:06:37.146Z,-0.20
2019-01-05T19:09:45.396Z,-0.10
2019-01-05T19:12:35.657Z,-0.20
2019-01-05T19:15:23.002Z,-0.20
2019-01-05T19:18:02.257Z,-0.20
2019-01-05T19:21:02.592Z,-0.20
2019-01-05T19:24:00.096Z,-0.20
2019-01-05T19:26:47.442Z,-0.20
2019-01-05T19:29:48.240Z,-0.20
2019-01-05T19:32:35.246Z,-0.20
2019-01-05T19:35:23.717Z,-0.20
2019-01-05T19:38:13.862Z,-0.30
2019-01-05T19:41:05.487Z,-0.30
2019-01-05T19:43:52.905Z,-0.30
2019-01-05T19:46:41.438Z,-0.30
2019-01-05T19:49:48.203Z,-0.30
2019-01-05T19:52:36.574Z,-0.30
2019-01-05T19:55:24.997Z,-0.40
2019-01-05T19:58:19.512Z,-0.30
2019-01-05T20:01:03.458Z,-0.40
2019-01-05T20:03:50.564Z,-0.40
2019-01-05T20:06:38.016Z,-0.40
2019-01-05T20:09:18.861Z,-0.40
2019-01-05T20:12:09.138Z,-0.50
2019-01-05T20:14:57.549Z,-0.60
2019-01-05T20:17:44.572Z,-0.50
2019-01-05T20:20:46.781Z,-0.70
2019-01-05T20:23:35.195Z,-0.70
2019-01-05T20:26:26.760Z,-0.70
2019-01-05T20:29:27.042Z,-0.80
2019-01-05T20:32:10.309Z,-0.80
2019-01-05T20:35:10.689Z,-0.80
2019-01-05T20:38:08.352Z,-0.80
2019-01-05T20:40:55.710Z,-0.90
2019-01-05T20:43:57.783Z,-0.90
2019-01-05T20:46:45.076Z,-0.90
2019-01-05T20:49:45.455Z,-0.90
2019-01-05T20:52:32.737Z,-0.90
2019-01-05T20:55:20.083Z,-0.90
2019-01-05T20:58:07.136Z,-1.00
2019-01-05T21:00:54.496Z,-1.00
2019-01-05T21:03:55.253Z,-1.00
2019-01-05T21:06:56.005Z,-1.00
2019-01-05T21:09:39.903Z,-1.00
2019-01-05T21:12:27.080Z,-1.00
2019-01-05T21:15:21.520Z,-1.00
2019-01-05T21:18:11.431Z,-1.00
2019-01-05T21:21:09.123Z,-1.00
2019-01-05T21:23:56.086Z,-1.00
2019-01-05T21:26:53.659Z,-1.10
2019-01-05T21:30:00.119Z,-1.00
2019-01-05T21:32:48.594Z,-1.00
2019-01-05T21:35:46.123Z,-1.10
2019-01-05T21:38:33.464Z,-1.00
2019-01-05T21:41:20.822Z,-1.10
2019-01-05T21:44:20.278Z,-1.10
2019-01-05T21:47:14.736Z,-1.10
2019-01-05T21:50:02.362Z,-1.10
2019-01-05T21:52:53.734Z,-1.10
2019-01-05T21:55:40.804Z,-1.00
2019-01-05T21:58:35.767Z,-1.10
2019-01-05T22:01:27.181Z,-1.10
2019-01-05T22:04:14.308Z,-1.10
2019-01-05T22:07:08.573Z,-1.10
2019-01-05T22:09:56.040Z,-1.10
2019-01-05T22:12:53.394Z,-1.10
2019-01-05T22:15:38.911Z,-1.20
2019-01-05T22:18:36.159Z,-1.10
2019-01-05T22:21:42.681Z,-1.10
2019-01-05T22:24:33.808Z,-1.10
2019-01-05T22:27:21.094Z,-1.20
2019-01-05T22:30:12.472Z,-1.20
2019-01-05T22:32:59.578Z,-1.20
2019-01-05T22:35:54.126Z,-1.20
2019-01-05T22:38:42.646Z,-1.20
2019-01-05T22:41:30.098Z,-1.30
2019-01-05T22:44:24.392Z,-1.30
2019-01-05T22:47:12.781Z,-1.30
2019-01-05T22:50:16.519Z,-1.30
2019-01-05T22:53:13.334Z,-1.30
2019-01-05T22:56:00.629Z,-1.30
2019-01-05T22:58:51.832Z,-1.30
2019-01-05T23:01:40.355Z,-1.30
2019-01-05T23:04:27.233Z,-1.30
2019-01-05T23:07:23.836Z,-1.30
2019-01-05T23:10:21.042Z,-1.30
2019-01-05T23:13:21.832Z,-1.30
2019-01-05T23:16:09.184Z,-1.30
2019-01-05T23:18:48.817Z,-1.40
2019-01-05T23:21:40.351Z,-1.40
2019-01-05T23:24:32.053Z,-1.40
2019-01-05T23:27:19.433Z,-1.40
2019-01-05T23:30:06.433Z,-1.40
2019-01-05T23:33:01.741Z,-1.40
2019-01-05T23:35:59.124Z,-1.40
2019-01-05T23:38:59.727Z,-1.40
2019-01-05T23:41:48.264Z,-1.40
2019-01-05T23:44:36.644Z,-1.40
2019-01-05T23:47:27.957Z,-1.40
2019-01-05T23:50:15.329Z,-1.40
2019-01-05T23:53:02.602Z,-1.40
2019-01-05T23:55:49.761Z,-1.40
2019-01-05T23:58:46.972Z,-1.40
